»·PEaware :: N107MR KSEA-CYVR

N107MR :: KSEA-CYVR

FLIGHT INFORMATION

Flight Status: Arrived
Operator: Privately registered:
United States
More flights under this callsign
Pilot: Michael R. (16974)
Aircraft: ECLIPSE 500
(EA50)
More flights by this aircraft type
Origin: KSEA Seattle-Tacoma Intl
United States
Destination: CYVR Vancouver Intl
Canada
More flights between these airports :: More routes between these airports
Route: SEA PAE GRIZZ5
File this flight plan on PilotEdge
Remarks: GRIZZ5 Transition from PAE to cross EGRET 12000B 10000A @ 250k
Altitude:
(Current/Filed)
14,000ft
Speed:
(Current/Filed)
320kts
Departed: 28-Feb-18 08:44 PM
Arrived: 28-Feb-18 09:17 PM
Distance/Time
Traveled:
110nm/0:32
Distance/Time
To Go:
Arrived

Flight Plot

Page will automatically refresh every two minutes.

Flight plan parsing failed; only flown route is shown


Map Options




Map Legend


Flown Route
Filed Route
Departure Airport
Arrival Airport
Navaid (VOR, NDB)
Fix

Horizontal Profiles

Position Reports

Time Latitude Longitude Heading Altitude Ground
Speed
28-Feb-18 20:13 47.439010 -122.315054 54 347ft 0kts
28-Feb-18 20:14 47.439010 -122.315054 54 347ft 0kts
28-Feb-18 20:15 47.439010 -122.315054 54 347ft 0kts
28-Feb-18 20:16 47.439010 -122.315054 54 347ft 0kts
28-Feb-18 20:17 47.439010 -122.315054 54 347ft 0kts
28-Feb-18 20:18 47.439010 -122.315054 54 347ft 0kts
28-Feb-18 20:19 47.439010 -122.315054 54 347ft 0kts
28-Feb-18 20:20 47.439010 -122.315054 54 347ft 0kts
28-Feb-18 20:21 47.439010 -122.315054 54 347ft 0kts
28-Feb-18 20:22 47.439010 -122.315054 54 347ft 0kts
28-Feb-18 20:23 47.439010 -122.315054 54 347ft 0kts
28-Feb-18 20:24 47.439010 -122.315054 54 347ft 0kts
28-Feb-18 20:25 47.439010 -122.315054 54 347ft 0kts
28-Feb-18 20:26 47.439010 -122.315054 54 347ft 0kts
28-Feb-18 20:27 47.439010 -122.315054 54 347ft 0kts
28-Feb-18 20:28 47.439010 -122.315054 54 347ft 0kts
28-Feb-18 20:29 47.439010 -122.315054 54 347ft 0kts
28-Feb-18 20:30 47.439010 -122.315054 54 347ft 0kts
28-Feb-18 20:31 47.439010 -122.315054 54 347ft 0kts
28-Feb-18 20:32 47.439010 -122.315054 54 347ft 0kts
28-Feb-18 20:33 47.439010 -122.315054 54 347ft 0kts
28-Feb-18 20:34 47.439010 -122.315054 54 347ft 0kts
28-Feb-18 20:35 47.439010 -122.315054 54 347ft 0kts
28-Feb-18 20:36 47.439010 -122.315054 54 347ft 0kts
28-Feb-18 20:37 47.439010 -122.315054 54 347ft 0kts
28-Feb-18 20:38 47.439010 -122.315054 54 347ft 0kts
28-Feb-18 20:39 47.439010 -122.315054 54 347ft 0kts
28-Feb-18 20:40 47.439010 -122.315054 54 347ft 0kts
28-Feb-18 20:41 47.439010 -122.315054 54 347ft 0kts
28-Feb-18 20:42 47.439010 -122.315054 54 347ft 0kts
28-Feb-18 20:43 47.439010 -122.315054 54 347ft 0kts
28-Feb-18 20:44 47.439163 -122.314732 53 348ft 10kts
28-Feb-18 20:45 47.443102 -122.313622 2 365ft 22kts
28-Feb-18 20:46 47.451272 -122.313544 0 394ft 31kts
28-Feb-18 20:47 47.460743 -122.313455 0 383ft 37kts
28-Feb-18 20:48 47.463672 -122.312322 89 375ft 0kts
28-Feb-18 20:49 47.463672 -122.312322 89 375ft 0kts
28-Feb-18 20:50 47.463310 -122.311016 161 386ft 14kts
28-Feb-18 20:51 47.445332 -122.311927 181 1152ft 129kts
28-Feb-18 20:52 47.406602 -122.313386 179 4919ft 140kts
28-Feb-18 20:53 47.368392 -122.307383 177 8129ft 147kts
28-Feb-18 20:54 47.353482 -122.256937 45 10890ft 225kts
28-Feb-18 20:55 47.412455 -122.246909 351 13548ft 219kts
28-Feb-18 20:56 47.485411 -122.251848 353 14012ft 313kts
28-Feb-18 20:57 47.575333 -122.257187 353 14009ft 333kts
28-Feb-18 20:58 47.666763 -122.262605 353 14009ft 331kts
28-Feb-18 20:59 47.758638 -122.268066 354 14006ft 331kts
28-Feb-18 21:00 47.851314 -122.273677 355 14003ft 339kts
28-Feb-18 21:01 47.945716 -122.286015 346 14003ft 342kts
28-Feb-18 21:02 48.039435 -122.312958 345 14004ft 344kts
28-Feb-18 21:03 48.128382 -122.338601 345 14005ft 344kts
28-Feb-18 21:04 48.221185 -122.365509 345 14004ft 339kts
28-Feb-18 21:05 48.312897 -122.392180 345 13969ft 337kts
28-Feb-18 21:06 48.403003 -122.418507 345 13970ft 336kts
28-Feb-18 21:07 48.494502 -122.445339 345 13971ft 335kts
28-Feb-18 21:08 48.585920 -122.472229 345 13962ft 335kts
28-Feb-18 21:09 48.677418 -122.499245 345 13940ft 336kts
28-Feb-18 21:10 48.746406 -122.579912 303 13936ft 314kts
28-Feb-18 21:11 48.799245 -122.681038 301 13939ft 312kts
28-Feb-18 21:12 48.852292 -122.784771 300 13527ft 306kts
28-Feb-18 21:13 48.901218 -122.880431 300 11857ft 281kts
28-Feb-18 21:14 48.947507 -122.969869 300 9765ft 262kts
28-Feb-18 21:15 49.006607 -123.022027 13 7594ft 278kts
28-Feb-18 21:16 49.058744 -122.962999 85 5457ft 232kts
28-Feb-18 21:17 49.065877 -122.871574 92 3913ft 206kts
28-Feb-18 21:18 49.110112 -122.824554 17 3226ft 227kts
28-Feb-18 21:19 49.149827 -122.879552 284 2560ft 230kts
28-Feb-18 21:20 49.161542 -122.962440 281 1644ft 156kts
28-Feb-18 21:21 49.169481 -123.028360 279 1317ft 162kts
28-Feb-18 21:22 49.177091 -123.094465 279 922ft 153kts
28-Feb-18 21:23 49.183895 -123.153702 281 159ft 130kts
28-Feb-18 21:24 49.187867 -123.182934 72 13ft 11kts
28-Feb-18 21:25 49.190768 -123.179199 82 13ft 11kts
28-Feb-18 21:26 49.190799 -123.178832 78 13ft 0kts
28-Feb-18 21:27 49.190799 -123.178832 78 13ft 0kts
28-Feb-18 21:28 49.190799 -123.178832 78 13ft 0kts
28-Feb-18 21:29 49.190799 -123.178832 78 13ft 0kts
28-Feb-18 21:30 49.190799 -123.178832 78 13ft 0kts
28-Feb-18 21:31 49.190799 -123.178832 78 13ft 0kts
28-Feb-18 21:32 49.190799 -123.178832 78 13ft 0kts
28-Feb-18 21:33 49.190799 -123.178832 78 13ft 0kts
28-Feb-18 21:34 49.190799 -123.178832 78 13ft 0kts
28-Feb-18 21:35 49.190799 -123.178832 78 13ft 0kts
28-Feb-18 21:36 49.190799 -123.178832 78 13ft 0kts
28-Feb-18 21:37 49.190799 -123.178832 78 13ft 0kts
28-Feb-18 21:38 49.190799 -123.178832 78 13ft 0kts

Navigation Log

Ident Type
Flight plan parsing failed, navigation log unavailable